PWSweather.com
Personal Weather Stations
Station Observations
PHMDWX
Perry Hall, MD 21236

Perry Hall, MD 21236

Lat: 39.418318, Lon: -76.490039

Elevation: 305

Station Type: Davis Vantage Pro

Latest ConditionsUpdated 4:00:16 PM EST Saturday, Jan 31, 2015
Currently Today's Max Today's Min Today's Average
Temperature 28.5°F-1.9°C 29.6°F-1.3°C 15.4°F-9.2°C 20.9°F-6.2°C
Dew Point 7.8°F-13.4°C 7.8°F-13.4°C -1.0°F-18.3°C 3.3°F-15.9°C
Winds 6.0 mph WNW9.7 kmh WNW 12.7 mph 20.4 kmh - 6.9 mph 11.1 kmh
Wind Gusts 12.0 mph19.3 kmh 20.0 mph32.2 kmh - -
Humidity 41% 57% 38% 46%
Pressure 30.22 in1023.4 mb 30.29 in1025.7 mb 30.19 in1022.4 mb -
Hour Temp Dew Point Humidity Winds Wind Gusts Pressure Precip Precip Rate Daily Precip Total
04:00 PM 28.5°F-1.9°C 7.8°F-13.4°C 41% 6.0 mph WNW9.7 kmh WNW 12.0 mph19.3 kmh 30.22 in1023.4 mb 0.00 in0.0 mm 0.00 in/hr0.0 mm/hr 0.00 in0.0 mm
03:30 PM 28.4°F-2.0°C 7.1°F-13.8°C 40% 5.9 mph NW9.5 kmh NW 11.0 mph17.7 kmh 30.22 in1023.4 mb 0.00 in0.0 mm 0.00 in/hr0.0 mm/hr 0.00 in0.0 mm
03:00 PM 28.4°F-2.0°C 7.1°F-13.8°C 40% 7.4 mph W11.9 kmh W 13.0 mph20.9 kmh 30.23 in1023.7 mb 0.00 in0.0 mm 0.00 in/hr0.0 mm/hr 0.00 in0.0 mm
02:30 PM 28.2°F-2.1°C 6.4°F-14.2°C 39% 7.7 mph NW12.4 kmh NW 16.0 mph25.7 kmh 30.22 in1023.4 mb 0.00 in0.0 mm 0.00 in/hr0.0 mm/hr 0.00 in0.0 mm
02:00 PM 28.5°F-1.9°C 6.1°F-14.4°C 38% 6.3 mph NW10.1 kmh NW 17.0 mph27.4 kmh 30.23 in1023.7 mb 0.00 in0.0 mm 0.00 in/hr0.0 mm/hr 0.00 in0.0 mm
01:30 PM 29.6°F-1.3°C 7.0°F-13.9°C 38% 6.6 mph WSW10.6 kmh WSW 7.0 mph11.3 kmh 30.23 in1023.7 mb 0.00 in0.0 mm 0.00 in/hr0.0 mm/hr 0.00 in0.0 mm
01:00 PM 28.4°F-2.0°C 6.0°F-14.4°C 38% 8.4 mph NNW13.5 kmh NNW 14.0 mph22.5 kmh 30.25 in1024.4 mb 0.00 in0.0 mm 0.00 in/hr0.0 mm/hr 0.00 in0.0 mm
12:30 PM 27.0°F-2.8°C 5.3°F-14.8°C 39% 6.1 mph NNW9.8 kmh NNW 12.0 mph19.3 kmh 30.27 in1025.1 mb 0.00 in0.0 mm 0.00 in/hr0.0 mm/hr 0.00 in0.0 mm
12:00 PM 26.7°F-2.9°C 5.6°F-14.7°C 40% 7.7 mph WSW12.4 kmh WSW 12.0 mph19.3 kmh 30.27 in1025.1 mb 0.00 in0.0 mm 0.00 in/hr0.0 mm/hr 0.00 in0.0 mm
11:30 AM 25.5°F-3.6°C 4.5°F-15.3°C 40% 8.9 mph NNE14.3 kmh NNE 13.0 mph20.9 kmh 30.29 in1025.7 mb 0.00 in0.0 mm 0.00 in/hr0.0 mm/hr 0.00 in0.0 mm
11:00 AM 25.6°F-3.6°C 5.1°F-14.9°C 41% 4.0 mph NW6.4 kmh NW 12.0 mph19.3 kmh 30.29 in1025.7 mb 0.00 in0.0 mm 0.00 in/hr0.0 mm/hr 0.00 in0.0 mm
10:30 AM 24.4°F-4.2°C 5.1°F-14.9°C 43% 4.9 mph NW7.9 kmh NW 10.0 mph16.1 kmh 30.29 in1025.7 mb 0.00 in0.0 mm 0.00 in/hr0.0 mm/hr 0.00 in0.0 mm
10:00 AM 23.2°F-4.9°C 5.4°F-14.8°C 46% 5.1 mph NW8.2 kmh NW 13.0 mph20.9 kmh 30.29 in1025.7 mb 0.00 in0.0 mm 0.00 in/hr0.0 mm/hr 0.00 in0.0 mm
09:30 AM 19.9°F-6.7°C 4.7°F-15.2°C 51% 6.4 mph NW10.3 kmh NW 12.0 mph19.3 kmh 30.28 in1025.4 mb 0.00 in0.0 mm 0.00 in/hr0.0 mm/hr 0.00 in0.0 mm
09:00 AM 18.1°F-7.7°C 3.8°F-15.7°C 53% 10.7 mph NNW17.2 kmh NNW 17.0 mph27.4 kmh 30.28 in1025.4 mb 0.00 in0.0 mm 0.00 in/hr0.0 mm/hr 0.00 in0.0 mm
08:30 AM 17.0°F-8.3°C 3.2°F-16.0°C 54% 8.2 mph W13.2 kmh W 15.0 mph24.1 kmh 30.27 in1025.1 mb 0.00 in0.0 mm 0.00 in/hr0.0 mm/hr 0.00 in0.0 mm
08:00 AM 15.9°F-8.9°C 3.4°F-15.9°C 57% 6.0 mph N9.7 kmh N 20.0 mph32.2 kmh 30.27 in1025.1 mb 0.00 in0.0 mm 0.00 in/hr0.0 mm/hr 0.00 in0.0 mm
07:30 AM 15.4°F-9.2°C 2.5°F-16.4°C 56% 4.2 mph NW6.8 kmh NW 8.0 mph12.9 kmh 30.27 in1025.1 mb 0.00 in0.0 mm 0.00 in/hr0.0 mm/hr 0.00 in0.0 mm
07:00 AM 15.4°F-9.2°C 2.1°F-16.6°C 55% 1.8 mph NW2.9 kmh NW 3.0 mph4.8 kmh 30.25 in1024.4 mb 0.00 in0.0 mm 0.00 in/hr0.0 mm/hr 0.00 in0.0 mm
06:30 AM 15.4°F-9.2°C 1.3°F-17.1°C 53% 6.8 mph NNW10.9 kmh NNW 10.0 mph16.1 kmh 30.24 in1024.0 mb 0.00 in0.0 mm 0.00 in/hr0.0 mm/hr 0.00 in0.0 mm
06:00 AM 15.6°F-9.1°C 1.1°F-17.2°C 52% 6.2 mph 10.0 kmh 12.0 mph19.3 kmh 30.23 in1023.7 mb 0.00 in0.0 mm 0.00 in/hr0.0 mm/hr 0.00 in0.0 mm
05:30 AM 15.9°F-8.9°C 0.5°F-17.5°C 50% 8.1 mph WNW13.0 kmh WNW 8.0 mph12.9 kmh 30.23 in1023.7 mb 0.00 in0.0 mm 0.00 in/hr0.0 mm/hr 0.00 in0.0 mm
05:00 AM 16.1°F-8.8°C 0.3°F-17.6°C 49% 6.4 mph N10.3 kmh N 11.0 mph17.7 kmh 30.22 in1023.4 mb 0.00 in0.0 mm 0.00 in/hr0.0 mm/hr 0.00 in0.0 mm
04:30 AM 16.2°F-8.8°C -1.0°F-18.3°C 46% 7.2 mph NNW11.6 kmh NNW 12.0 mph19.3 kmh 30.23 in1023.7 mb 0.00 in0.0 mm 0.00 in/hr0.0 mm/hr 0.00 in0.0 mm
04:00 AM 16.4°F-8.7°C -0.3°F-17.9°C 47% 8.2 mph NW13.2 kmh NW 14.0 mph22.5 kmh 30.23 in1023.7 mb 0.00 in0.0 mm 0.00 in/hr0.0 mm/hr 0.00 in0.0 mm
03:30 AM 16.5°F-8.6°C -0.7°F-18.2°C 46% 7.6 mph N12.2 kmh N 8.0 mph12.9 kmh 30.23 in1023.7 mb 0.00 in0.0 mm 0.00 in/hr0.0 mm/hr 0.00 in0.0 mm
03:00 AM 16.5°F-8.6°C 0.2°F-17.7°C 48% 7.3 mph WNW11.7 kmh WNW 12.0 mph19.3 kmh 30.22 in1023.4 mb 0.00 in0.0 mm 0.00 in/hr0.0 mm/hr 0.00 in0.0 mm
02:30 AM 16.9°F-8.4°C 0.6°F-17.4°C 48% 5.1 mph WNW8.2 kmh WNW 10.0 mph16.1 kmh 30.22 in1023.4 mb 0.00 in0.0 mm 0.00 in/hr0.0 mm/hr 0.00 in0.0 mm
02:00 AM 17.0°F-8.3°C 1.1°F-17.2°C 49% 10.1 mph W16.3 kmh W 18.0 mph29.0 kmh 30.21 in1023.0 mb 0.00 in0.0 mm 0.00 in/hr0.0 mm/hr 0.00 in0.0 mm
01:30 AM 17.3°F-8.2°C 1.4°F-17.0°C 49% 9.2 mph NW14.8 kmh NW 8.0 mph12.9 kmh 30.20 in1022.7 mb 0.00 in0.0 mm 0.00 in/hr0.0 mm/hr 0.00 in0.0 mm
01:00 AM 17.7°F-7.9°C 1.3°F-17.1°C 48% 7.5 mph NW12.1 kmh NW 11.0 mph17.7 kmh 30.20 in1022.7 mb 0.00 in0.0 mm 0.00 in/hr0.0 mm/hr 0.00 in0.0 mm
12:30 AM 18.2°F-7.7°C 1.3°F-17.1°C 47% 12.7 mph 20.4 kmh 14.0 mph22.5 kmh 30.20 in1022.7 mb 0.00 in0.0 mm 0.00 in/hr0.0 mm/hr 0.00 in0.0 mm
12:00 AM 18.9°F-7.3°C 3.7°F-15.7°C 51% 4.5 mph WNW7.2 kmh WNW 12.0 mph19.3 kmh 30.19 in1022.4 mb 0.00 in0.0 mm 0.00 in/hr0.0 mm/hr 0.00 in0.0 mm